Terminal Aerodrome Forecast
Issued by NWS

Home | Current Version | Previous Version | Text Only | Print | Product List | Glossary On
Versions: 1 2 3 4 5 6 7 8 9 10 11 12 13 14 15 16 17 18 19
000
FTUS43 KDDC 161120
TAFHYS
TAF
KHYS 161120Z 1612/1712 17010KT P6SM SCT250
     FM161700 17016G23KT P6SM FEW250
     FM162300 17013G18KT P6SM BKN060=

USA.gov is the U.S. government's official web portal to all federal, state and local government web resources and services.